createdAt,value
2022-09-29T00:01:04.728Z,30.17
2022-09-29T00:03:31.410Z,33.80
2022-09-29T00:05:58.152Z,31.08
2022-09-29T00:08:27.657Z,29.25
2022-09-29T00:10:54.549Z,31.77
2022-09-29T00:13:22.263Z,33.10
2022-09-29T00:15:57.241Z,30.50
2022-09-29T00:18:23.873Z,28.02
2022-09-29T00:21:04.468Z,29.73
2022-09-29T00:23:32.089Z,24.15
2022-09-29T00:26:06.388Z,28.27
2022-09-29T00:28:34.903Z,24.33
2022-09-29T00:31:02.879Z,21.38
2022-09-29T00:33:31.367Z,26.20
2022-09-29T00:35:59.628Z,26.58
2022-09-29T00:38:26.674Z,21.95
2022-09-29T00:40:53.413Z,26.77
2022-09-29T00:43:23.641Z,26.10
2022-09-29T00:45:53.604Z,26.92
2022-09-29T00:48:35.458Z,27.45
2022-09-29T00:51:02.632Z,24.50
2022-09-29T00:53:29.266Z,20.13
2022-09-29T00:56:05.850Z,20.75
2022-09-29T00:58:41.094Z,17.65
2022-09-29T01:03:38.402Z,18.05
2022-09-29T01:06:16.256Z,24.75
2022-09-29T01:08:47.527Z,24.17
2022-09-29T01:11:14.485Z,30.00
2022-09-29T01:13:41.793Z,25.80
2022-09-29T01:16:08.669Z,24.92
2022-09-29T01:18:35.364Z,24.60
2022-09-29T01:21:20.708Z,28.67
2022-09-29T01:24:24.679Z,27.80
2022-09-29T01:27:05.931Z,47.72
2022-09-29T01:30:03.399Z,48.75
2022-09-29T01:32:35.950Z,58.42
2022-09-29T01:35:27.454Z,54.50
2022-09-29T01:38:02.906Z,52.55
2022-09-29T01:40:41.874Z,41.90
2022-09-29T01:43:12.070Z,41.22
2022-09-29T01:45:40.906Z,36.42
2022-09-29T01:48:10.841Z,37.58
2022-09-29T01:50:50.354Z,32.75
2022-09-29T01:53:20.930Z,25.20
2022-09-29T01:55:51.742Z,21.45
2022-09-29T01:58:22.410Z,22.90
2022-09-29T02:00:53.487Z,21.52
2022-09-29T02:03:20.112Z,20.55
2022-09-29T02:05:53.119Z,24.20
2022-09-29T02:08:24.513Z,41.35
2022-09-29T02:10:58.147Z,14.73
2022-09-29T02:13:25.078Z,16.13
2022-09-29T02:15:54.986Z,15.15
2022-09-29T02:18:31.850Z,12.85
2022-09-29T02:20:58.487Z,17.02
2022-09-29T02:23:25.031Z,15.13
2022-09-29T02:25:52.538Z,15.05
2022-09-29T02:28:19.575Z,13.00
2022-09-29T02:30:46.141Z,15.70
2022-09-29T02:33:24.077Z,12.88
2022-09-29T02:36:18.926Z,10.38
2022-09-29T02:39:01.142Z,10.15
2022-09-29T02:41:46.576Z,12.23
2022-09-29T02:44:22.481Z,9.65
2022-09-29T02:46:58.264Z,10.43
2022-09-29T02:49:46.098Z,24.00
2022-09-29T02:52:28.300Z,13.23
2022-09-29T02:55:08.195Z,10.25
2022-09-29T02:57:53.601Z,8.52
2022-09-29T03:00:20.734Z,8.85
2022-09-29T03:02:47.669Z,9.00
2022-09-29T03:05:19.826Z,9.65
2022-09-29T03:07:46.769Z,10.00
2022-09-29T03:10:14.871Z,7.78
2022-09-29T03:12:41.443Z,7.05
2022-09-29T03:15:09.214Z,13.82
2022-09-29T03:17:36.011Z,8.75
2022-09-29T03:20:02.662Z,8.40
2022-09-29T03:22:29.223Z,7.00
2022-09-29T03:24:55.833Z,8.25
2022-09-29T03:27:22.514Z,7.22
2022-09-29T03:29:50.454Z,8.45
2022-09-29T03:32:17.632Z,10.35
2022-09-29T03:34:44.318Z,7.72
2022-09-29T03:37:10.882Z,8.57
2022-09-29T03:39:37.730Z,7.95
2022-09-29T03:42:04.514Z,7.55
2022-09-29T03:44:31.107Z,8.52
2022-09-29T03:46:57.788Z,15.48
2022-09-29T03:49:24.328Z,10.60
2022-09-29T03:51:52.661Z,8.27
2022-09-29T03:54:19.456Z,7.38
2022-09-29T03:56:46.041Z,8.75
2022-09-29T03:59:15.169Z,8.20
2022-09-29T04:01:41.917Z,8.63
2022-09-29T04:04:09.574Z,11.88
2022-09-29T04:06:36.488Z,7.60
2022-09-29T04:09:03.706Z,8.45
2022-09-29T04:11:30.529Z,8.20
2022-09-29T04:13:57.390Z,8.63
2022-09-29T04:16:24.022Z,9.77
2022-09-29T04:18:50.629Z,9.82
2022-09-29T04:21:17.287Z,10.05
2022-09-29T04:23:43.932Z,8.95
2022-09-29T04:26:10.854Z,8.10
2022-09-29T04:28:38.223Z,8.43
2022-09-29T04:31:05.483Z,8.45
2022-09-29T04:33:32.372Z,7.82
2022-09-29T04:35:59.557Z,8.35
2022-09-29T04:38:26.354Z,10.27
2022-09-29T04:40:52.971Z,10.55
2022-09-29T04:43:19.657Z,11.13
2022-09-29T04:45:46.293Z,9.63
2022-09-29T04:48:12.901Z,10.00
2022-09-29T04:50:39.607Z,7.78
2022-09-29T04:53:07.607Z,7.88
2022-09-29T04:55:34.522Z,10.40
2022-09-29T04:58:01.194Z,8.82
2022-09-29T05:00:27.792Z,10.27
2022-09-29T05:02:54.385Z,9.48
2022-09-29T05:05:20.965Z,9.30
2022-09-29T05:07:48.240Z,10.02
2022-09-29T05:10:14.860Z,11.60
2022-09-29T05:12:41.485Z,11.20
2022-09-29T05:15:08.748Z,12.02
2022-09-29T05:17:35.361Z,11.60
2022-09-29T05:20:02.173Z,11.32
2022-09-29T05:22:28.763Z,8.70
2022-09-29T05:24:55.305Z,11.18
2022-09-29T05:27:22.389Z,8.20
2022-09-29T05:29:49.400Z,8.40
2022-09-29T05:32:16.083Z,10.88
2022-09-29T05:34:42.783Z,11.27
2022-09-29T05:37:09.918Z,11.15
2022-09-29T05:39:37.400Z,9.23
2022-09-29T05:42:06.511Z,12.80
2022-09-29T05:44:33.860Z,8.93
2022-09-29T05:47:00.528Z,12.80
2022-09-29T05:49:27.305Z,13.50
2022-09-29T05:51:53.891Z,13.45
2022-09-29T05:54:21.243Z,11.35
2022-09-29T05:56:47.896Z,13.15
2022-09-29T05:59:14.521Z,11.52
2022-09-29T06:01:41.186Z,11.32
2022-09-29T06:04:07.791Z,9.38
2022-09-29T06:06:36.348Z,10.15
2022-09-29T06:09:03.693Z,12.27
2022-09-29T06:11:33.653Z,11.50
2022-09-29T06:14:01.923Z,12.57
2022-09-29T06:16:30.005Z,10.55
2022-09-29T06:18:56.871Z,10.27
2022-09-29T06:21:25.934Z,10.95
2022-09-29T06:23:54.578Z,10.68
2022-09-29T06:26:24.135Z,10.82
2022-09-29T06:28:51.917Z,9.60
2022-09-29T06:31:20.933Z,10.43
2022-09-29T06:33:47.816Z,9.63
2022-09-29T06:36:42.020Z,10.32
2022-09-29T06:39:10.841Z,10.85
2022-09-29T06:41:37.465Z,14.30
2022-09-29T06:44:04.123Z,10.88
2022-09-29T06:46:31.362Z,12.15
2022-09-29T06:48:57.980Z,8.65
2022-09-29T06:51:34.843Z,9.98
2022-09-29T06:54:11.884Z,9.02
2022-09-29T06:56:38.847Z,6.72
2022-09-29T06:59:05.663Z,6.60
2022-09-29T07:01:32.507Z,7.75
2022-09-29T07:04:00.806Z,9.93
2022-09-29T07:06:27.712Z,7.97
2022-09-29T07:08:55.059Z,7.72
2022-09-29T07:11:22.026Z,6.60
2022-09-29T07:13:54.203Z,6.03
2022-09-29T07:16:23.998Z,6.45
2022-09-29T07:18:51.573Z,8.82
2022-09-29T07:21:19.083Z,6.82
2022-09-29T07:23:47.120Z,8.57
2022-09-29T07:26:16.782Z,6.10
2022-09-29T07:28:44.114Z,44.08
2022-09-29T07:31:15.579Z,10.25
2022-09-29T07:33:45.935Z,6.82
2022-09-29T07:36:17.449Z,5.10
2022-09-29T07:38:48.517Z,5.72
2022-09-29T07:41:16.001Z,5.00
2022-09-29T07:43:42.572Z,6.38
2022-09-29T07:46:09.827Z,5.72
2022-09-29T07:48:37.271Z,10.27
2022-09-29T07:51:08.950Z,10.48
2022-09-29T07:53:37.031Z,7.38
2022-09-29T07:56:06.006Z,6.50
2022-09-29T07:58:33.432Z,6.45
2022-09-29T08:01:01.423Z,7.97
2022-09-29T08:03:30.127Z,7.55
2022-09-29T08:05:58.818Z,7.20
2022-09-29T08:08:26.169Z,6.55
2022-09-29T08:10:53.988Z,7.45
2022-09-29T08:13:20.845Z,5.53
2022-09-29T08:15:47.479Z,8.95
2022-09-29T08:18:14.056Z,6.13
2022-09-29T08:20:40.630Z,7.07
2022-09-29T08:23:07.178Z,7.15
2022-09-29T08:25:35.500Z,6.88
2022-09-29T08:28:10.404Z,6.53
2022-09-29T08:30:38.328Z,6.22
2022-09-29T08:33:07.796Z,5.53
2022-09-29T08:35:34.721Z,8.10
2022-09-29T08:38:03.807Z,9.25
2022-09-29T08:41:35.363Z,6.45
2022-09-29T08:44:34.446Z,7.07
2022-09-29T08:47:44.650Z,10.10
2022-09-29T08:50:33.781Z,10.73
2022-09-29T08:53:12.143Z,9.40
2022-09-29T08:55:47.100Z,9.80
2022-09-29T08:58:16.968Z,6.95
2022-09-29T09:01:12.916Z,6.55
2022-09-29T09:06:21.754Z,6.20
2022-09-29T09:09:16.383Z,7.53
2022-09-29T09:12:20.948Z,7.40
2022-09-29T09:15:12.608Z,6.28
2022-09-29T09:17:57.826Z,10.25
2022-09-29T09:20:59.837Z,8.27
2022-09-29T09:23:41.368Z,6.68
2022-09-29T09:26:08.783Z,6.50
2022-09-29T09:28:40.737Z,6.90
2022-09-29T09:31:40.598Z,6.25
2022-09-29T09:34:21.966Z,5.88
2022-09-29T09:37:07.616Z,4.75
2022-09-29T09:39:37.819Z,6.65
2022-09-29T09:42:13.383Z,5.15
2022-09-29T09:44:43.474Z,4.22
2022-09-29T09:47:27.154Z,4.55
2022-09-29T09:50:00.255Z,4.15
2022-09-29T09:52:43.593Z,8.07
2022-09-29T09:55:21.557Z,3.88
2022-09-29T09:58:20.655Z,5.43
2022-09-29T10:00:50.800Z,10.77
2022-09-29T10:03:17.622Z,5.55
2022-09-29T10:05:45.622Z,8.18
2022-09-29T10:08:39.897Z,7.47
2022-09-29T10:11:20.624Z,7.35
2022-09-29T10:13:47.514Z,8.23
2022-09-29T10:16:18.446Z,8.27
2022-09-29T10:18:52.667Z,13.77
2022-09-29T10:21:36.476Z,6.67
2022-09-29T10:24:04.379Z,11.57
2022-09-29T10:26:38.565Z,8.20
2022-09-29T10:29:28.274Z,10.00
2022-09-29T10:32:10.435Z,9.73
2022-09-29T10:34:39.682Z,8.40
2022-09-29T10:37:35.132Z,6.93
2022-09-29T10:40:14.432Z,6.07
2022-09-29T10:42:43.740Z,6.22
2022-09-29T10:45:19.717Z,12.43
2022-09-29T10:47:48.438Z,11.48
2022-09-29T10:50:18.183Z,6.93
2022-09-29T10:52:58.848Z,6.07
2022-09-29T10:55:30.587Z,6.57
2022-09-29T10:57:58.731Z,5.32
2022-09-29T11:00:43.936Z,6.43
2022-09-29T11:03:20.288Z,4.32
2022-09-29T11:05:54.873Z,7.68
2022-09-29T11:08:25.945Z,5.32
2022-09-29T11:11:21.181Z,3.78
2022-09-29T11:13:48.229Z,4.40
2022-09-29T11:16:15.514Z,7.80
2022-09-29T11:18:49.759Z,3.85
2022-09-29T11:22:03.134Z,11.32
2022-09-29T11:24:39.461Z,4.93
2022-09-29T11:27:26.444Z,4.10
2022-09-29T11:30:18.423Z,2.85
2022-09-29T11:33:07.774Z,3.78
2022-09-29T11:36:11.907Z,3.35
2022-09-29T11:38:45.225Z,3.22
2022-09-29T11:41:21.087Z,4.03
2022-09-29T11:43:54.930Z,6.03
2022-09-29T11:46:31.349Z,3.55
2022-09-29T11:49:07.300Z,4.57
2022-09-29T11:51:52.194Z,7.95
2022-09-29T11:54:45.535Z,4.97
2022-09-29T11:57:24.298Z,5.78
2022-09-29T12:00:03.742Z,3.40
2022-09-29T12:02:45.580Z,4.38
2022-09-29T12:05:18.196Z,4.38
2022-09-29T12:07:58.113Z,4.68
2022-09-29T12:11:13.110Z,4.95
2022-09-29T12:14:11.404Z,4.78
2022-09-29T12:16:39.839Z,5.05
2022-09-29T12:19:12.054Z,3.47
2022-09-29T12:21:43.288Z,6.28
2022-09-29T12:24:39.189Z,6.10
2022-09-29T12:29:42.080Z,5.07
2022-09-29T12:32:32.692Z,5.47
2022-09-29T12:35:38.075Z,7.90
2022-09-29T12:38:26.175Z,6.00
2022-09-29T12:41:21.676Z,7.70
2022-09-29T12:44:29.064Z,6.45
2022-09-29T12:47:04.457Z,7.93
2022-09-29T12:49:56.127Z,8.57
2022-09-29T12:52:29.415Z,4.93
2022-09-29T12:55:00.423Z,5.90
2022-09-29T12:57:32.702Z,5.63
2022-09-29T13:00:03.788Z,5.93
2022-09-29T13:02:48.464Z,6.20
2022-09-29T13:05:33.540Z,16.17
2022-09-29T13:08:34.336Z,6.18
2022-09-29T13:11:29.068Z,5.13
2022-09-29T13:14:17.665Z,4.15
2022-09-29T13:16:50.833Z,4.05
2022-09-29T13:19:34.107Z,3.53
2022-09-29T13:22:22.483Z,6.00
2022-09-29T13:24:58.313Z,4.72
2022-09-29T13:27:45.474Z,3.97
2022-09-29T13:30:12.012Z,5.32
2022-09-29T13:32:47.970Z,4.97
2022-09-29T13:35:24.422Z,4.60
2022-09-29T13:37:56.757Z,4.68
2022-09-29T13:40:26.576Z,4.00
2022-09-29T13:43:03.089Z,4.95
2022-09-29T13:45:34.381Z,7.20
2022-09-29T13:50:49.855Z,5.78
2022-09-29T13:53:19.606Z,4.22
2022-09-29T13:55:57.568Z,4.50
2022-09-29T13:58:25.694Z,4.97
2022-09-29T14:00:53.803Z,4.53
2022-09-29T14:03:38.602Z,4.40
2022-09-29T14:06:36.595Z,3.70
2022-09-29T14:09:05.862Z,3.90
2022-09-29T14:11:35.542Z,7.93
2022-09-29T14:14:24.557Z,3.42
2022-09-29T14:16:53.466Z,5.80
2022-09-29T14:20:03.734Z,6.95
2022-09-29T14:22:30.283Z,4.50
2022-09-29T14:25:09.838Z,4.85
2022-09-29T14:27:49.297Z,6.97
2022-09-29T14:30:32.676Z,4.75
2022-09-29T14:33:06.865Z,6.75
2022-09-29T14:35:36.367Z,3.87
2022-09-29T14:38:10.725Z,5.20
2022-09-29T14:40:37.408Z,4.90
2022-09-29T14:43:10.041Z,4.70
2022-09-29T14:46:37.083Z,4.38
2022-09-29T14:52:33.309Z,5.75
2022-09-29T14:55:22.946Z,4.13
2022-09-29T14:58:11.545Z,4.70
2022-09-29T15:01:00.036Z,4.10
2022-09-29T15:03:48.009Z,4.32
2022-09-29T15:06:17.473Z,5.18
2022-09-29T15:09:00.242Z,4.32
2022-09-29T15:11:37.799Z,3.97
2022-09-29T15:14:24.384Z,7.35
2022-09-29T15:17:15.631Z,4.05
2022-09-29T15:20:08.257Z,5.43
2022-09-29T15:22:56.806Z,5.10
2022-09-29T15:25:32.406Z,8.13
2022-09-29T15:28:11.087Z,5.15
2022-09-29T15:30:38.071Z,6.65
2022-09-29T15:33:27.997Z,6.20
2022-09-29T15:36:06.884Z,5.63
2022-09-29T15:38:39.895Z,7.03
2022-09-29T15:41:16.919Z,6.30
2022-09-29T15:43:46.825Z,8.93
2022-09-29T15:46:25.233Z,5.85
2022-09-29T15:49:05.026Z,6.30
2022-09-29T15:51:31.774Z,6.97
2022-09-29T15:54:00.974Z,8.00
2022-09-29T15:56:31.471Z,8.13
2022-09-29T15:58:58.418Z,7.60
2022-09-29T16:01:25.161Z,7.88
2022-09-29T16:03:53.885Z,6.88
2022-09-29T16:06:30.594Z,7.30
2022-09-29T16:09:00.521Z,6.25
2022-09-29T16:11:40.151Z,8.15
2022-09-29T16:14:18.737Z,7.60
2022-09-29T16:16:48.007Z,7.63
2022-09-29T16:19:27.133Z,6.13
2022-09-29T16:21:56.374Z,7.93
2022-09-29T16:24:24.984Z,7.63
2022-09-29T16:26:53.317Z,7.90
2022-09-29T16:29:19.853Z,8.00
2022-09-29T16:31:48.286Z,9.35
2022-09-29T16:34:21.283Z,10.48
2022-09-29T16:36:54.741Z,8.80
2022-09-29T16:39:35.376Z,6.85
2022-09-29T16:44:44.445Z,9.32
2022-09-29T16:47:22.480Z,11.80
2022-09-29T16:49:51.944Z,9.98
2022-09-29T16:52:31.476Z,8.85
2022-09-29T16:55:24.629Z,9.32
2022-09-29T16:57:55.121Z,11.25
2022-09-29T17:00:22.460Z,9.10
2022-09-29T17:02:56.073Z,10.98
2022-09-29T17:05:26.457Z,12.55
2022-09-29T17:08:06.287Z,13.10
2022-09-29T17:10:33.381Z,8.80
2022-09-29T17:13:00.214Z,10.48
2022-09-29T17:15:26.994Z,13.82
2022-09-29T17:17:53.734Z,8.27
2022-09-29T17:20:30.030Z,10.13
2022-09-29T17:22:59.331Z,11.20
2022-09-29T17:25:25.979Z,8.68
2022-09-29T17:28:11.206Z,10.88
2022-09-29T17:30:39.292Z,9.48
2022-09-29T17:33:05.962Z,10.90
2022-09-29T17:35:44.313Z,10.98
2022-09-29T17:38:12.476Z,11.05
2022-09-29T17:41:02.317Z,9.95
2022-09-29T17:43:31.505Z,9.25
2022-09-29T17:45:59.887Z,9.90
2022-09-29T17:48:28.063Z,11.38
2022-09-29T17:50:56.592Z,10.27
2022-09-29T17:53:24.614Z,10.65
2022-09-29T17:55:54.544Z,13.95
2022-09-29T17:58:22.880Z,11.13
2022-09-29T18:00:51.782Z,15.00
2022-09-29T18:03:20.027Z,12.18
2022-09-29T18:05:49.292Z,12.00
2022-09-29T18:08:18.087Z,13.40
2022-09-29T18:10:52.599Z,12.38
2022-09-29T18:13:20.218Z,16.65
2022-09-29T18:15:47.133Z,12.23
2022-09-29T18:18:16.922Z,13.15
2022-09-29T18:20:47.158Z,13.07
2022-09-29T18:23:15.397Z,14.68
2022-09-29T18:25:47.498Z,12.98
2022-09-29T18:28:15.554Z,16.35
2022-09-29T18:30:43.691Z,13.30
2022-09-29T18:33:15.585Z,15.48
2022-09-29T18:35:45.153Z,13.88
2022-09-29T18:38:12.118Z,14.98
2022-09-29T18:40:39.902Z,19.20
2022-09-29T18:43:07.208Z,14.32
2022-09-29T18:45:38.245Z,16.92
2022-09-29T18:48:08.016Z,17.25
2022-09-29T18:50:42.962Z,26.80
2022-09-29T18:53:14.516Z,16.80
2022-09-29T18:55:41.792Z,18.05
2022-09-29T18:58:17.403Z,18.45
2022-09-29T19:00:47.461Z,17.13
2022-09-29T19:03:14.145Z,18.40
2022-09-29T19:05:42.290Z,20.05
2022-09-29T19:08:11.173Z,19.00
2022-09-29T19:10:38.449Z,16.85
2022-09-29T19:13:08.459Z,17.55
2022-09-29T19:15:40.107Z,17.83
2022-09-29T19:18:09.436Z,18.05
2022-09-29T19:20:36.439Z,17.10
2022-09-29T19:23:03.461Z,19.63
2022-09-29T19:25:36.425Z,24.90
2022-09-29T19:28:05.557Z,18.50
2022-09-29T19:30:35.379Z,18.52
2022-09-29T19:33:02.190Z,20.30
2022-09-29T19:35:29.353Z,18.75
2022-09-29T19:37:59.228Z,21.40
2022-09-29T19:40:29.376Z,21.40
2022-09-29T19:42:58.559Z,20.40
2022-09-29T19:45:25.979Z,18.45
2022-09-29T19:47:57.154Z,20.95
2022-09-29T19:50:43.039Z,19.85
2022-09-29T19:55:42.154Z,23.52
2022-09-29T19:58:08.844Z,22.77
2022-09-29T20:00:35.627Z,24.25
2022-09-29T20:03:02.505Z,23.13
2022-09-29T20:05:29.313Z,22.80
2022-09-29T20:07:56.069Z,24.67
2022-09-29T20:10:24.341Z,23.08
2022-09-29T20:12:50.938Z,27.40
2022-09-29T20:15:17.759Z,22.90
2022-09-29T20:17:44.778Z,21.85
2022-09-29T20:20:11.914Z,22.77
2022-09-29T20:22:38.896Z,21.10
2022-09-29T20:25:08.058Z,21.85
2022-09-29T20:27:37.998Z,26.02
2022-09-29T20:30:05.415Z,23.40
2022-09-29T20:32:33.654Z,25.58
2022-09-29T20:35:00.682Z,25.65
2022-09-29T20:37:29.118Z,24.52
2022-09-29T20:39:56.099Z,23.38
2022-09-29T20:42:23.063Z,23.13
2022-09-29T20:44:55.047Z,25.75
2022-09-29T20:47:25.002Z,22.65
2022-09-29T20:49:55.223Z,23.75
2022-09-29T20:52:25.258Z,25.42
2022-09-29T20:54:51.941Z,21.88
2022-09-29T20:57:18.669Z,25.45
2022-09-29T20:59:45.401Z,23.92
2022-09-29T21:02:13.294Z,24.30
2022-09-29T21:04:42.399Z,26.80
2022-09-29T21:07:30.250Z,23.63
2022-09-29T21:09:56.874Z,23.77
2022-09-29T21:12:23.520Z,29.13
2022-09-29T21:14:50.151Z,27.50
2022-09-29T21:17:16.946Z,24.67
2022-09-29T21:19:43.816Z,31.92
2022-09-29T21:22:10.752Z,23.02
2022-09-29T21:24:41.558Z,27.08
2022-09-29T21:27:09.353Z,24.42
2022-09-29T21:29:38.753Z,25.70
2022-09-29T21:32:05.670Z,24.75
2022-09-29T21:34:32.334Z,24.73
2022-09-29T21:36:59.087Z,24.83
2022-09-29T21:39:25.737Z,28.17
2022-09-29T21:41:52.495Z,28.27
2022-09-29T21:44:23.422Z,24.83
2022-09-29T21:46:50.901Z,28.75
2022-09-29T21:49:19.417Z,29.73
2022-09-29T21:51:49.101Z,26.52
2022-09-29T21:54:18.021Z,28.40
2022-09-29T21:56:46.193Z,27.42
2022-09-29T21:59:15.613Z,31.65
2022-09-29T22:01:43.418Z,30.60
2022-09-29T22:04:10.821Z,26.90
2022-09-29T22:06:38.659Z,29.45
2022-09-29T22:09:07.919Z,27.25
2022-09-29T22:11:38.765Z,26.10
2022-09-29T22:14:05.922Z,29.52
2022-09-29T22:16:34.540Z,29.40
2022-09-29T22:19:23.393Z,29.23
2022-09-29T22:21:50.894Z,28.67
2022-09-29T22:24:17.544Z,25.48
2022-09-29T22:26:44.247Z,27.13
2022-09-29T22:29:10.999Z,30.80
2022-09-29T22:31:40.361Z,28.67
2022-09-29T22:34:08.371Z,25.98
2022-09-29T22:36:35.593Z,25.50
2022-09-29T22:39:03.755Z,29.20
2022-09-29T22:41:30.789Z,30.80
2022-09-29T22:43:59.358Z,24.35
2022-09-29T22:46:28.049Z,23.85
2022-09-29T22:48:55.017Z,30.30
2022-09-29T22:51:21.853Z,30.50
2022-09-29T22:53:49.006Z,33.08
2022-09-29T22:56:18.178Z,24.08
2022-09-29T22:58:44.983Z,22.63
2022-09-29T23:01:13.788Z,24.40
2022-09-29T23:03:41.654Z,26.65
2022-09-29T23:06:08.563Z,24.85
2022-09-29T23:08:35.953Z,23.80
2022-09-29T23:11:05.582Z,23.35
2022-09-29T23:13:34.323Z,26.35
2022-09-29T23:16:04.582Z,26.98
2022-09-29T23:18:34.149Z,24.13
2022-09-29T23:21:02.476Z,24.67
2022-09-29T23:23:29.311Z,25.80
2022-09-29T23:25:56.112Z,26.40
2022-09-29T23:28:22.862Z,22.58
2022-09-29T23:30:49.624Z,21.90
2022-09-29T23:33:16.346Z,26.00
2022-09-29T23:35:43.245Z,28.42
2022-09-29T23:38:31.474Z,24.58
2022-09-29T23:40:58.206Z,25.17
2022-09-29T23:43:24.982Z,35.00
2022-09-29T23:45:51.653Z,27.08
2022-09-29T23:48:18.311Z,28.25
2022-09-29T23:50:45.391Z,26.10
2022-09-29T23:53:12.431Z,30.42
2022-09-29T23:55:39.514Z,26.27
2022-09-29T23:58:06.201Z,24.05
